Estación Meteorológica Peña el Pijo (Robertgarden) [ 07/23/19 14:20:41 CEST ]

Fecha Hora Presion(HPa) Temp (°C) Humedad % Rocio (°C) Viento ( m/s) Direccion Lluvia 1Hora(mm) Lluvia 24H(mm) LLuvia Total(mm)
2019-Mar-14 01:01:43 1017.500 2.7 60 -4.3         184.40
2019-Mar-14 02:02:14 1018.000 2.3 64 -3.8         184.40
2019-Mar-14 03:02:21 1017.500 2.2 65 -3.7         184.40
2019-Mar-14 04:02:26 1017.100 1.8 68 -3.5         184.40
2019-Mar-14 05:02:10 1016.600 1.9 69 -3.2         184.40
2019-Mar-14 06:03:10 1016.600 1.8 71 -2.9         184.40
2019-Mar-14 07:01:46 1016.800 1.9 72 -2.6         184.40
2019-Mar-14 08:01:40 1017.000 1.3 73 -3.1         184.40
2019-Mar-14 09:01:43 1017.500 5.2 70 0.2         184.40
2019-Mar-14 10:01:41 1017.000 11.2 45 -0.4         184.40
2019-Mar-14 11:01:44 1017.000 15.5 29 -2.5         184.40
2019-Mar-14 12:01:36 1016.700 16.8 24 -4.1         184.40
2019-Mar-14 13:01:38 1016.300 17.1 21 -5.5         184.40
2019-Mar-14 14:01:33 1015.700 19.0 22 -3.4         184.40
2019-Mar-14 15:01:36 1015.100 18.9 20 -4.6         184.40
2019-Mar-14 16:01:37 1015.000 18.7 20 -4.7 2.2 E     184.40
2019-Mar-14 17:02:07 1014.700 18.6 22 -3.7         184.40
2019-Mar-14 18:01:52 1014.600 18.4 23 -3.3         184.40
2019-Mar-14 19:01:48 1015.200 14.6 28 -3.8         184.40
2019-Mar-14 20:01:57 1016.000 11.5 34 -3.9         184.40
2019-Mar-14 21:01:48 1016.300 9.5 39 -3.8         184.40
2019-Mar-14 22:01:39 1016.800 8.1 43 -3.8         184.40
2019-Mar-14 23:01:45 1017.200 6.7 47 -3.9         184.40

Temperatura Máxima:19°    Temperatura Mínima:
Presión Máxima:1018.000 Hpa    Presión Mínima:1014.600 Hpa


Volver